Huvudsida
METAR-TAF:

METAR-TAF

Flygplatser :

Niamey, Niger

latitud: 13-29N, longitud: 002-10E, höjd: 223 m

Aktuellt väderrapport

Denna rapport gjordes för 33 minuter sedan, klockan 03:00 UTC
Vind 9 kt från väst/sydväst
Temperatur 32°C
Fuktighet 41%
Tryck 1006 hPa
Sikt 10 km eller mer
Inga moln under 1 500 m eller inga cumulonimbus

METAR: DRRN 250300Z 25009KT CAVOK 32/17 Q1006 NOSIG

Tid: 04:33 (03:33 UTC)

Väderprognos

Denna rapport gjordes för 4 timmar och 33 minuter sedan, klockan 23:00 UTC
Prognos gäller från 25 kl. 00 UTC till 26 kl. 06 UTC
Vind 8 kt från sydväst
Sikt: 8000 m
Sannolikhet 40%
från 25 kl. 14 UTC till 25 kl. 19 UTC
Vind 30 kt varierande vindriktning i byarna ända upp till 40 kt
Sikt: 1000 m
Spridda moln på en höjd av 3000 ft
Få moln på en höjd av 4500 ft, Cumulonimbus.
högt sanddrev, åska, regn

TAF: DRRN 242300Z 2500/2606 22008KT 8000 NSC PROB40 2514/2519 VRB30G40KT 1000 BLSA TSRA SCT030 FEW045CB

Aktuella väderrapporter och prognoser från 4000 flygplatser (METAR- och TAF-rapporter).

De tillgängliga stationerna syns som gula och röda prickar på kartan.

För musen över prickarna för att se namnen på stationerna.

Klicka sedan för att få väderrapporter och prognoser.

För att ändra kartan: Klicka på de gröna knapparna med ett svart kors på för att zooma in; den gröna knappen med ett streck på för att zooma ut; eller på de gröna pilarna för angränsande kartor.


METAR-TAF: